Terminal Aerodrome Forecast
Issued by NWS

Home | Current Version | Previous Version | Text Only | Print | Product List | Glossary On
Versions: 1 2 3 4 5 6 7 8 9 10 11 12 13 14
000
FTUS45 KGGW 012300
TAFSDY
TAF
KSDY 012320Z 0200/0224 30010KT P6SM SCT035 BKN110
     FM020600 VRB04KT P6SM SCT080
     FM021200 24009KT P6SM SCT090
     FM021800 31021G30KT P6SM BKN035
      AMD LTD TO CLD VIS AND WIND=

USA.gov is the U.S. government's official web portal to all federal, state and local government web resources and services.